createdAt,value
2022-12-11T00:01:10.760Z,-0.23
2022-12-11T00:03:39.362Z,-0.21
2022-12-11T00:06:09.203Z,-0.14
2022-12-11T00:08:39.090Z,-0.17
2022-12-11T00:11:09.661Z,-0.24
2022-12-11T00:13:37.711Z,-0.49
2022-12-11T00:16:06.179Z,-0.56
2022-12-11T00:18:34.304Z,-0.47
2022-12-11T00:21:02.751Z,-0.41
2022-12-11T00:23:31.560Z,-0.54
2022-12-11T00:26:01.081Z,-0.47
2022-12-11T00:28:29.070Z,-0.38
2022-12-11T00:30:57.069Z,-0.27
2022-12-11T00:33:25.069Z,-0.19
2022-12-11T00:35:53.028Z,-0.12
2022-12-11T00:38:22.547Z,-0.05
2022-12-11T00:40:50.582Z,0.09
2022-12-11T00:43:20.097Z,0.00
2022-12-11T00:45:49.244Z,0.04
2022-12-11T00:48:17.306Z,-0.02
2022-12-11T00:50:45.363Z,-0.15
2022-12-11T00:53:13.554Z,-0.15
2022-12-11T00:55:43.459Z,-0.32
2022-12-11T00:58:11.926Z,-0.17
2022-12-11T01:00:43.607Z,-0.31
2022-12-11T01:03:14.284Z,-0.35
2022-12-11T01:05:42.822Z,-0.27
2022-12-11T01:08:11.569Z,-0.30
2022-12-11T01:10:39.739Z,-0.46
2022-12-11T01:13:08.709Z,-0.43
2022-12-11T01:15:42.850Z,-0.96
2022-12-11T01:18:12.333Z,-0.92
2022-12-11T01:20:42.701Z,-0.85
2022-12-11T01:23:14.215Z,-0.70
2022-12-11T01:25:43.121Z,-0.66
2022-12-11T01:28:11.613Z,-0.82
2022-12-11T01:30:41.652Z,-0.68
2022-12-11T01:33:11.560Z,-0.58
2022-12-11T01:35:41.100Z,-0.51
2022-12-11T01:38:09.129Z,-0.48
2022-12-11T01:40:37.220Z,-0.53
2022-12-11T01:43:05.205Z,-0.51
2022-12-11T01:45:40.666Z,-0.57
2022-12-11T01:48:13.035Z,-0.51
2022-12-11T01:50:45.637Z,-0.91
2022-12-11T01:53:19.078Z,-1.01
2022-12-11T01:55:49.048Z,-1.09
2022-12-11T01:58:19.691Z,-1.34
2022-12-11T02:00:48.021Z,-1.37
2022-12-11T02:03:17.779Z,-1.15
2022-12-11T02:05:45.850Z,-1.27
2022-12-11T02:08:14.285Z,-1.38
2022-12-11T02:10:50.722Z,-0.98
2022-12-11T02:13:28.147Z,-0.94
2022-12-11T02:16:02.488Z,-0.77
2022-12-11T02:18:37.707Z,-0.57
2022-12-11T02:21:14.545Z,-0.41
2022-12-11T02:24:05.248Z,-0.50
2022-12-11T02:26:53.472Z,-0.53
2022-12-11T02:29:28.609Z,-0.46
2022-12-11T02:32:02.854Z,-0.43
2022-12-11T02:34:37.425Z,-0.51
2022-12-11T02:37:10.566Z,-0.74
2022-12-11T02:39:41.767Z,-0.70
2022-12-11T02:42:12.444Z,-0.78
2022-12-11T02:44:43.002Z,-0.88
2022-12-11T02:47:16.489Z,-0.79
2022-12-11T02:49:47.831Z,-1.26
2022-12-11T02:52:20.078Z,-1.60
2022-12-11T02:54:49.253Z,-1.79
2022-12-11T02:57:23.237Z,-1.85
2022-12-11T02:59:52.888Z,-1.85
2022-12-11T03:02:21.024Z,-1.68
2022-12-11T03:04:49.633Z,-1.73
2022-12-11T03:07:23.570Z,-1.58
2022-12-11T03:09:52.218Z,-1.39
2022-12-11T03:12:24.329Z,-1.47
2022-12-11T03:14:53.755Z,-1.76
2022-12-11T03:17:24.075Z,-1.91
2022-12-11T03:20:01.510Z,-1.76
2022-12-11T03:22:38.938Z,-1.47
2022-12-11T03:25:11.664Z,-1.18
2022-12-11T03:27:44.920Z,-1.16
2022-12-11T03:30:18.074Z,-1.14
2022-12-11T03:32:53.760Z,-1.01
2022-12-11T03:35:26.865Z,-0.88
2022-12-11T03:37:57.960Z,-0.98
2022-12-11T03:40:27.265Z,-1.16
2022-12-11T03:42:58.677Z,-1.27
2022-12-11T03:45:30.661Z,-1.21
2022-12-11T03:48:02.928Z,-1.38
2022-12-11T03:50:33.768Z,-1.27
2022-12-11T03:53:02.878Z,-1.01
2022-12-11T03:55:33.696Z,-0.95
2022-12-11T03:58:01.854Z,-0.98
2022-12-11T04:00:31.446Z,-0.85
2022-12-11T04:03:14.937Z,-0.83
2022-12-11T04:05:44.712Z,-0.69
2022-12-11T04:08:13.086Z,-0.90
2022-12-11T04:10:41.737Z,-0.94
2022-12-11T04:13:10.283Z,-0.82
2022-12-11T04:15:39.608Z,-0.86
2022-12-11T04:18:22.579Z,-0.72
2022-12-11T04:21:13.654Z,-0.77
2022-12-11T04:23:59.843Z,-0.74
2022-12-11T04:26:28.225Z,-0.72
2022-12-11T04:28:56.245Z,-0.69
2022-12-11T04:31:25.675Z,-1.06
2022-12-11T04:33:53.861Z,-0.94
2022-12-11T04:36:21.849Z,-0.93
2022-12-11T04:38:49.910Z,-1.26
2022-12-11T04:41:18.615Z,-1.00
2022-12-11T04:43:46.847Z,-0.74
2022-12-11T04:46:17.023Z,-0.71
2022-12-11T04:48:51.179Z,-0.62
2022-12-11T04:51:22.016Z,-0.74
2022-12-11T04:53:50.152Z,-0.69
2022-12-11T04:56:18.184Z,-0.72
2022-12-11T04:58:46.731Z,-0.68
2022-12-11T05:01:17.094Z,-0.64
2022-12-11T05:03:46.863Z,-0.60
2022-12-11T05:06:15.454Z,-0.54
2022-12-11T05:08:45.448Z,-0.56
2022-12-11T05:11:15.254Z,-0.70
2022-12-11T05:13:43.708Z,-0.52
2022-12-11T05:16:13.798Z,-0.69
2022-12-11T05:18:41.968Z,-0.91
2022-12-11T05:21:13.110Z,-0.64
2022-12-11T05:23:42.201Z,-0.86
2022-12-11T05:26:13.783Z,-0.84
2022-12-11T05:28:42.318Z,-0.74
2022-12-11T05:31:15.124Z,-0.75
2022-12-11T05:33:43.486Z,-1.00
2022-12-11T05:36:16.966Z,-0.73
2022-12-11T05:38:45.471Z,-0.70
2022-12-11T05:41:15.827Z,-0.72
2022-12-11T05:43:44.008Z,-1.01
2022-12-11T05:46:14.296Z,-0.75
2022-12-11T05:48:43.051Z,-0.55
2022-12-11T05:51:13.219Z,-0.47
2022-12-11T05:53:42.582Z,-0.41
2022-12-11T05:56:13.258Z,-0.47
2022-12-11T05:58:42.230Z,-0.41
2022-12-11T06:01:11.949Z,-0.49
2022-12-11T06:03:40.446Z,-0.61
2022-12-11T06:06:09.708Z,-0.50
2022-12-11T06:08:39.456Z,-0.39
2022-12-11T06:11:08.122Z,-0.36
2022-12-11T06:13:36.930Z,-0.40
2022-12-11T06:16:06.881Z,-0.41
2022-12-11T06:18:37.903Z,-0.39
2022-12-11T06:21:13.916Z,-0.37
2022-12-11T06:23:43.891Z,-0.26
2022-12-11T06:26:12.648Z,-0.40
2022-12-11T06:28:41.410Z,-1.19
2022-12-11T06:31:09.634Z,-1.07
2022-12-11T06:33:38.279Z,-1.14
2022-12-11T06:36:07.888Z,-1.33
2022-12-11T06:38:36.717Z,-1.05
2022-12-11T06:41:08.043Z,-0.91
2022-12-11T06:43:37.527Z,-0.73
2022-12-11T06:46:06.624Z,-0.48
2022-12-11T06:48:34.985Z,-0.51
2022-12-11T06:51:07.715Z,-0.38
2022-12-11T06:53:36.252Z,-0.34
2022-12-11T06:56:08.854Z,-0.37
2022-12-11T06:58:38.635Z,-0.29
2022-12-11T07:01:14.847Z,-0.26
2022-12-11T07:03:43.113Z,-0.33
2022-12-11T07:06:11.680Z,-0.20
2022-12-11T07:08:40.091Z,-0.34
2022-12-11T07:11:12.546Z,-0.21
2022-12-11T07:13:42.159Z,-0.12
2022-12-11T07:16:11.716Z,-0.17
2022-12-11T07:18:40.547Z,-0.12
2022-12-11T07:21:09.055Z,-0.26
2022-12-11T07:23:37.593Z,-0.12
2022-12-11T07:26:06.480Z,-0.00
2022-12-11T07:28:36.535Z,-0.19
2022-12-11T07:31:07.644Z,-0.20
2022-12-11T07:33:35.682Z,-0.12
2022-12-11T07:36:04.536Z,-0.09
2022-12-11T07:38:33.011Z,-0.20
2022-12-11T07:41:02.155Z,0.06
2022-12-11T07:43:30.594Z,0.18
2022-12-11T07:46:03.772Z,0.27
2022-12-11T07:48:31.799Z,0.43
2022-12-11T07:51:09.627Z,0.42
2022-12-11T07:53:37.766Z,0.50
2022-12-11T07:56:06.384Z,0.45
2022-12-11T07:58:34.534Z,0.56
2022-12-11T08:01:04.085Z,0.48
2022-12-11T08:03:32.370Z,0.44
2022-12-11T08:06:00.317Z,0.57
2022-12-11T08:08:28.387Z,0.65
2022-12-11T08:10:56.484Z,0.68
2022-12-11T08:13:24.853Z,0.68
2022-12-11T08:15:54.778Z,0.76
2022-12-11T08:18:25.196Z,0.79
2022-12-11T08:20:53.427Z,0.96
2022-12-11T08:23:21.449Z,0.72
2022-12-11T08:25:49.447Z,0.75
2022-12-11T08:28:17.906Z,0.40
2022-12-11T08:30:46.270Z,0.55
2022-12-11T08:33:14.707Z,0.70
2022-12-11T08:35:46.778Z,0.67
2022-12-11T08:38:15.498Z,0.65
2022-12-11T08:40:43.921Z,0.99
2022-12-11T08:43:12.007Z,1.30
2022-12-11T08:45:40.598Z,1.59
2022-12-11T08:48:08.646Z,1.73
2022-12-11T08:50:38.305Z,1.79
2022-12-11T08:53:07.985Z,1.86
2022-12-11T08:55:36.042Z,1.78
2022-12-11T08:58:04.081Z,1.59
2022-12-11T09:00:32.508Z,0.93
2022-12-11T09:03:01.037Z,1.25
2022-12-11T09:05:29.139Z,1.14
2022-12-11T09:07:57.249Z,1.57
2022-12-11T09:10:27.269Z,1.86
2022-12-11T09:12:55.240Z,2.03
2022-12-11T09:15:24.209Z,2.28
2022-12-11T09:17:52.808Z,2.49
2022-12-11T09:20:21.612Z,2.65
2022-12-11T09:22:49.850Z,2.70
2022-12-11T09:25:17.942Z,2.16
2022-12-11T09:27:47.495Z,2.47
2022-12-11T09:30:16.630Z,2.67
2022-12-11T09:32:44.679Z,3.05
2022-12-11T09:35:12.878Z,3.29
2022-12-11T09:37:41.554Z,3.45
2022-12-11T09:40:11.829Z,3.54
2022-12-11T09:42:52.182Z,3.69
2022-12-11T09:45:21.089Z,3.69
2022-12-11T09:47:53.401Z,3.78
2022-12-11T09:50:25.242Z,3.92
2022-12-11T09:53:06.700Z,4.03
2022-12-11T09:55:42.988Z,3.98
2022-12-11T09:58:23.522Z,3.69
2022-12-11T10:00:59.074Z,3.81
2022-12-11T10:03:52.706Z,4.11
2022-12-11T10:06:26.974Z,4.14
2022-12-11T10:09:04.716Z,4.26
2022-12-11T10:11:54.452Z,4.15
2022-12-11T10:14:36.439Z,4.23
2022-12-11T10:17:12.348Z,4.28
2022-12-11T10:19:42.976Z,4.31
2022-12-11T10:22:19.432Z,4.51
2022-12-11T10:25:12.564Z,4.90
2022-12-11T10:27:41.722Z,4.79
2022-12-11T10:30:18.162Z,4.62
2022-12-11T10:32:53.023Z,4.59
2022-12-11T10:35:34.721Z,4.54
2022-12-11T10:38:17.160Z,4.81
2022-12-11T10:40:51.938Z,4.99
2022-12-11T10:43:20.512Z,5.11
2022-12-11T10:45:55.034Z,4.85
2022-12-11T10:48:23.883Z,4.92
2022-12-11T10:51:03.679Z,5.25
2022-12-11T10:53:32.775Z,5.21
2022-12-11T10:56:01.531Z,5.38
2022-12-11T10:58:34.352Z,5.57
2022-12-11T11:01:10.662Z,5.69
2022-12-11T11:03:56.414Z,5.77
2022-12-11T11:06:26.045Z,5.63
2022-12-11T11:08:56.595Z,5.66
2022-12-11T11:11:28.224Z,5.68
2022-12-11T11:14:14.981Z,5.74
2022-12-11T11:16:46.711Z,5.91
2022-12-11T11:19:22.122Z,6.12
2022-12-11T11:21:55.062Z,6.15
2022-12-11T11:24:28.433Z,6.11
2022-12-11T11:27:12.908Z,5.95
2022-12-11T11:29:42.804Z,5.56
2022-12-11T11:32:21.551Z,5.74
2022-12-11T11:34:49.745Z,5.57
2022-12-11T11:37:27.105Z,5.62
2022-12-11T11:40:04.417Z,5.77
2022-12-11T11:42:42.482Z,5.59
2022-12-11T11:45:16.879Z,5.53
2022-12-11T11:47:57.904Z,4.94
2022-12-11T11:50:32.979Z,5.45
2022-12-11T11:53:06.038Z,5.35
2022-12-11T11:55:43.851Z,5.27
2022-12-11T11:58:16.996Z,5.40
2022-12-11T12:00:45.069Z,5.38
2022-12-11T12:03:18.077Z,5.47
2022-12-11T12:05:54.827Z,5.31
2022-12-11T12:08:34.592Z,5.68
2022-12-11T12:11:08.692Z,5.79
2022-12-11T12:13:49.653Z,5.90
2022-12-11T12:16:52.372Z,5.98
2022-12-11T12:19:30.440Z,6.07
2022-12-11T12:22:02.105Z,6.04
2022-12-11T12:24:38.727Z,6.14
2022-12-11T12:27:50.473Z,6.25
2022-12-11T12:30:13.258Z,6.42
2022-12-11T12:32:54.860Z,6.09
2022-12-11T12:35:34.206Z,6.13
2022-12-11T12:38:12.418Z,6.20
2022-12-11T12:40:51.761Z,6.22
2022-12-11T12:43:51.641Z,6.44
2022-12-11T12:46:34.484Z,6.36
2022-12-11T12:49:03.627Z,6.42
2022-12-11T12:51:33.595Z,6.50
2022-12-11T12:54:10.664Z,6.73
2022-12-11T12:56:45.277Z,6.78
2022-12-11T12:59:24.387Z,6.91
2022-12-11T13:01:57.144Z,6.90
2022-12-11T13:04:58.459Z,6.92
2022-12-11T13:07:30.921Z,6.93
2022-12-11T13:10:06.220Z,6.97
2022-12-11T13:12:45.980Z,7.07
2022-12-11T13:15:33.422Z,6.90
2022-12-11T13:18:03.606Z,7.01
2022-12-11T13:20:33.747Z,7.15
2022-12-11T13:23:20.769Z,7.20
2022-12-11T13:25:53.143Z,7.33
2022-12-11T13:28:27.536Z,7.32
2022-12-11T13:31:01.805Z,7.35
2022-12-11T13:33:31.470Z,7.36
2022-12-11T13:36:24.923Z,7.33
2022-12-11T13:38:58.067Z,7.38
2022-12-11T13:41:26.334Z,7.40
2022-12-11T13:43:55.203Z,7.46
2022-12-11T13:46:28.263Z,7.49
2022-12-11T13:49:01.006Z,7.54
2022-12-11T13:51:32.304Z,7.62
2022-12-11T13:54:07.180Z,7.67
2022-12-11T13:56:35.529Z,7.77
2022-12-11T13:59:03.647Z,7.82
2022-12-11T14:01:35.418Z,7.69
2022-12-11T14:04:09.303Z,7.68
2022-12-11T14:06:40.112Z,7.66
2022-12-11T14:09:10.506Z,7.68
2022-12-11T14:11:42.087Z,7.57
2022-12-11T14:14:20.624Z,7.63
2022-12-11T14:16:50.316Z,7.56
2022-12-11T14:19:20.935Z,7.39
2022-12-11T14:21:59.969Z,7.45
2022-12-11T14:24:31.634Z,7.48
2022-12-11T14:27:00.174Z,7.42
2022-12-11T14:29:30.833Z,7.43
2022-12-11T14:32:02.829Z,7.47
2022-12-11T14:34:36.507Z,7.47
2022-12-11T14:37:08.310Z,7.45
2022-12-11T14:39:46.038Z,7.49
2022-12-11T14:42:19.270Z,7.51
2022-12-11T14:44:51.028Z,7.38
2022-12-11T14:47:22.552Z,7.44
2022-12-11T14:49:58.931Z,7.31
2022-12-11T14:52:32.838Z,7.29
2022-12-11T14:55:10.637Z,7.24
2022-12-11T14:57:42.965Z,7.19
2022-12-11T15:00:23.345Z,7.18
2022-12-11T15:02:59.589Z,7.06
2022-12-11T15:05:28.088Z,7.08
2022-12-11T15:07:59.513Z,6.95
2022-12-11T15:10:36.669Z,7.01
2022-12-11T15:13:07.056Z,7.01
2022-12-11T15:15:47.558Z,6.77
2022-12-11T15:18:22.220Z,6.77
2022-12-11T15:20:53.419Z,6.78
2022-12-11T15:23:24.467Z,6.87
2022-12-11T15:25:56.011Z,6.90
2022-12-11T15:28:28.427Z,6.87
2022-12-11T15:30:59.498Z,6.68
2022-12-11T15:33:33.869Z,6.76
2022-12-11T15:36:26.745Z,6.85
2022-12-11T15:38:54.809Z,6.82
2022-12-11T15:41:25.133Z,6.80
2022-12-11T15:43:58.525Z,6.83
2022-12-11T15:46:27.656Z,6.71
2022-12-11T15:48:57.866Z,6.56
2022-12-11T15:51:27.525Z,6.56
2022-12-11T15:53:55.741Z,6.62
2022-12-11T15:56:25.174Z,6.44
2022-12-11T15:58:53.201Z,6.15
2022-12-11T16:01:21.415Z,6.08
2022-12-11T16:03:50.406Z,6.10
2022-12-11T16:06:18.517Z,6.30
2022-12-11T16:08:46.667Z,6.41
2022-12-11T16:11:15.682Z,6.42
2022-12-11T16:13:45.182Z,6.34
2022-12-11T16:16:13.301Z,6.32
2022-12-11T16:18:41.308Z,6.34
2022-12-11T16:21:09.274Z,6.38
2022-12-11T16:23:37.553Z,6.42
2022-12-11T16:26:09.766Z,6.35
2022-12-11T16:28:37.888Z,6.44
2022-12-11T16:31:11.648Z,6.44
2022-12-11T16:33:39.830Z,6.47
2022-12-11T16:36:14.826Z,6.56
2022-12-11T16:38:51.387Z,6.53
2022-12-11T16:41:21.704Z,6.46
2022-12-11T16:43:49.855Z,6.46
2022-12-11T16:46:20.471Z,6.60
2022-12-11T16:48:48.543Z,6.58
2022-12-11T16:51:16.596Z,6.60
2022-12-11T16:53:44.589Z,6.57
2022-12-11T16:56:12.878Z,6.59
2022-12-11T16:58:41.666Z,6.52
2022-12-11T17:01:12.254Z,6.43
2022-12-11T17:03:43.199Z,6.50
2022-12-11T17:06:13.407Z,6.41
2022-12-11T17:08:42.712Z,6.42
2022-12-11T17:11:14.480Z,6.44
2022-12-11T17:13:42.770Z,6.41
2022-12-11T17:16:13.786Z,6.26
2022-12-11T17:18:44.489Z,6.33
2022-12-11T17:21:15.685Z,6.37
2022-12-11T17:23:43.908Z,6.38
2022-12-11T17:26:12.158Z,6.31
2022-12-11T17:28:40.831Z,6.08
2022-12-11T17:31:10.458Z,6.02
2022-12-11T17:33:38.763Z,6.04
2022-12-11T17:36:09.615Z,6.15
2022-12-11T17:38:37.667Z,6.18
2022-12-11T17:41:07.861Z,6.20
2022-12-11T17:43:36.368Z,6.14
2022-12-11T17:46:05.486Z,6.13
2022-12-11T17:48:36.851Z,6.15
2022-12-11T17:51:06.739Z,5.95
2022-12-11T17:53:37.587Z,5.96
2022-12-11T17:56:07.683Z,6.05
2022-12-11T17:58:35.966Z,6.21
2022-12-11T18:01:08.484Z,6.30
2022-12-11T18:03:37.035Z,6.37
2022-12-11T18:06:07.829Z,6.43
2022-12-11T18:08:37.651Z,6.44
2022-12-11T18:11:07.050Z,6.34
2022-12-11T18:13:35.451Z,6.50
2022-12-11T18:16:05.868Z,6.49
2022-12-11T18:18:35.611Z,6.47
2022-12-11T18:21:03.968Z,6.60
2022-12-11T18:23:32.364Z,6.69
2022-12-11T18:26:01.884Z,6.69
2022-12-11T18:28:32.313Z,6.70
2022-12-11T18:31:01.778Z,6.64
2022-12-11T18:33:31.166Z,6.62
2022-12-11T18:35:59.484Z,6.56
2022-12-11T18:38:27.820Z,6.61
2022-12-11T18:40:56.017Z,6.59
2022-12-11T18:43:25.722Z,6.52
2022-12-11T18:45:53.812Z,6.49
2022-12-11T18:48:22.064Z,6.65
2022-12-11T18:50:51.936Z,6.28
2022-12-11T18:53:20.899Z,6.64
2022-12-11T18:55:50.025Z,6.60
2022-12-11T18:58:20.642Z,6.41
2022-12-11T19:00:50.197Z,6.37
2022-12-11T19:03:20.923Z,6.14
2022-12-11T19:05:49.046Z,6.23
2022-12-11T19:08:17.825Z,6.36
2022-12-11T19:10:47.614Z,6.13
2022-12-11T19:13:17.187Z,6.02
2022-12-11T19:15:45.837Z,6.24
2022-12-11T19:18:15.498Z,6.29
2022-12-11T19:20:57.794Z,6.22
2022-12-11T19:23:31.845Z,6.11
2022-12-11T19:25:59.938Z,5.93
2022-12-11T19:28:27.931Z,5.89
2022-12-11T19:30:56.074Z,6.05
2022-12-11T19:33:25.849Z,5.96
2022-12-11T19:36:02.208Z,5.90
2022-12-11T19:38:30.283Z,5.78
2022-12-11T19:40:58.305Z,6.03
2022-12-11T19:43:26.579Z,5.88
2022-12-11T19:45:57.694Z,6.15
2022-12-11T19:48:27.379Z,6.00
2022-12-11T19:50:55.851Z,6.11
2022-12-11T19:53:25.803Z,5.93
2022-12-11T19:55:54.628Z,5.77
2022-12-11T19:58:22.857Z,5.99
2022-12-11T20:00:55.871Z,6.07
2022-12-11T20:03:26.910Z,6.05
2022-12-11T20:06:02.791Z,6.22
2022-12-11T20:08:46.721Z,6.27
2022-12-11T20:11:18.873Z,6.30
2022-12-11T20:13:47.555Z,6.38
2022-12-11T20:16:17.793Z,6.32
2022-12-11T20:18:46.330Z,6.24
2022-12-11T20:21:20.055Z,6.23
2022-12-11T20:23:48.874Z,6.12
2022-12-11T20:26:18.913Z,6.23
2022-12-11T20:28:51.107Z,6.20
2022-12-11T20:31:24.482Z,6.22
2022-12-11T20:33:54.278Z,6.23
2022-12-11T20:36:25.838Z,6.23
2022-12-11T20:38:54.404Z,6.05
2022-12-11T20:41:24.464Z,6.06
2022-12-11T20:43:54.383Z,5.76
2022-12-11T20:46:25.123Z,5.87
2022-12-11T20:48:54.316Z,6.09
2022-12-11T20:51:26.382Z,5.86
2022-12-11T20:53:59.236Z,6.13
2022-12-11T20:56:32.283Z,6.33
2022-12-11T20:59:01.573Z,6.22
2022-12-11T21:01:32.813Z,6.25
2022-12-11T21:04:01.953Z,6.07
2022-12-11T21:06:33.824Z,5.96
2022-12-11T21:09:05.349Z,6.25
2022-12-11T21:11:33.581Z,6.19
2022-12-11T21:14:01.909Z,6.19
2022-12-11T21:16:29.945Z,6.29
2022-12-11T21:18:58.864Z,5.88
2022-12-11T21:21:27.216Z,5.89
2022-12-11T21:23:56.766Z,6.09
2022-12-11T21:26:25.151Z,6.08
2022-12-11T21:28:53.882Z,6.10
2022-12-11T21:31:23.119Z,6.05
2022-12-11T21:33:51.958Z,6.21
2022-12-11T21:36:20.267Z,6.03
2022-12-11T21:38:48.852Z,6.04
2022-12-11T21:41:21.228Z,5.86
2022-12-11T21:45:06.960Z,6.02
2022-12-11T21:46:41.602Z,5.82
2022-12-11T21:49:10.164Z,5.84
2022-12-11T21:51:46.888Z,5.81
2022-12-11T21:54:18.198Z,5.46
2022-12-11T21:56:48.195Z,5.92
2022-12-11T21:59:16.955Z,5.84
2022-12-11T22:01:47.167Z,5.92
2022-12-11T22:04:16.288Z,6.00
2022-12-11T22:06:47.236Z,6.04
2022-12-11T22:09:16.394Z,5.97
2022-12-11T22:11:45.261Z,5.86
2022-12-11T22:14:15.562Z,6.07
2022-12-11T22:16:44.529Z,6.09
2022-12-11T22:19:13.620Z,5.95
2022-12-11T22:21:41.922Z,6.01
2022-12-11T22:24:10.500Z,6.00
2022-12-11T22:26:38.582Z,6.11
2022-12-11T22:29:06.801Z,5.97
2022-12-11T22:31:39.108Z,5.97
2022-12-11T22:34:07.339Z,6.02
2022-12-11T22:36:35.603Z,6.05
2022-12-11T22:39:03.779Z,6.00
2022-12-11T22:41:33.811Z,6.07
2022-12-11T22:44:02.403Z,6.05
2022-12-11T22:46:31.733Z,5.90
2022-12-11T22:49:01.057Z,5.93
2022-12-11T22:51:29.146Z,5.94
2022-12-11T22:53:57.406Z,5.69
2022-12-11T22:56:28.381Z,5.54
2022-12-11T22:58:59.754Z,5.47
2022-12-11T23:01:29.216Z,5.40
2022-12-11T23:03:57.328Z,5.25
2022-12-11T23:06:26.797Z,5.23
2022-12-11T23:08:59.468Z,5.05
2022-12-11T23:11:29.930Z,5.11
2022-12-11T23:13:59.135Z,5.13
2022-12-11T23:16:28.144Z,5.07
2022-12-11T23:18:56.920Z,4.86
2022-12-11T23:21:28.403Z,4.99
2022-12-11T23:23:56.925Z,4.96
2022-12-11T23:26:27.323Z,4.54
2022-12-11T23:28:56.558Z,4.62
2022-12-11T23:31:25.293Z,4.57
2022-12-11T23:33:53.912Z,4.60
2022-12-11T23:36:22.125Z,4.50
2022-12-11T23:38:54.827Z,4.36
2022-12-11T23:41:24.337Z,4.37
2022-12-11T23:43:52.874Z,4.21
2022-12-11T23:46:22.982Z,4.24
2022-12-11T23:48:51.315Z,4.37
2022-12-11T23:51:21.790Z,4.38
2022-12-11T23:53:52.028Z,4.24
2022-12-11T23:56:22.710Z,4.01
2022-12-11T23:58:51.192Z,4.18
